Time;durP1;ratioP1;P1;durP2;ratioP2;P2;SDS_P1;SDS_P2;PMS_P1;PMS_P2;Temp;Humidity;BMP_temperature;BMP_pressure;BME280_temperature;BME280_humidity;BME280_pressure;Samples;Min_cycle;Max_cycle;Signal;HPM_P1;HPM_P2
2023/09/07 00:00:25;;;;;;;;;12.00;12.00;;;;;20.95;41.54;99827.78;5064053;28;9013;-73
2023/09/07 00:03:14;;;;;;;;;16.20;15.20;;;;;20.96;41.44;99821.50;5023997;28;8998;-72
2023/09/07 00:05:46;;;;;;;;;16.40;15.20;;;;;20.97;41.58;99825.88;5048250;28;8855;-73
2023/09/07 00:08:15;;;;;;;;;15.20;15.20;;;;;20.90;41.52;99820.03;5065261;28;8940;-73
2023/09/07 00:10:44;;;;;;;;;15.80;14.80;;;;;20.90;41.96;99819.13;5064961;28;8858;-70
2023/09/07 00:13:12;;;;;;;;;15.20;14.40;;;;;20.83;41.89;99822.19;5048174;28;8831;-71
2023/09/07 00:15:41;;;;;;;;;15.40;14.80;;;;;20.82;42.37;99820.47;5065038;28;8942;-72
2023/09/07 00:18:10;;;;;;;;;15.00;15.00;;;;;20.74;42.12;99829.88;5063776;28;8877;-74
2023/09/07 00:20:40;;;;;;;;;15.00;15.00;;;;;20.72;42.50;99816.63;5031927;28;8848;-73
2023/09/07 00:23:10;;;;;;;;;14.20;12.00;;;;;20.71;43.00;99819.38;5066579;28;8844;-73
2023/09/07 00:25:39;;;;;;;;;15.60;15.20;;;;;20.67;43.22;99819.56;5052121;28;8857;-72
2023/09/07 00:28:08;;;;;;;;;14.60;14.60;;;;;20.65;43.10;99829.47;5068468;28;8859;-73
2023/09/07 00:30:37;;;;;;;;;17.00;17.00;;;;;20.59;43.40;99816.47;5020569;28;8873;-73
2023/09/07 00:33:05;;;;;;;;;15.20;15.20;;;;;20.57;43.65;99817.53;5096381;28;8975;-73
2023/09/07 00:35:35;;;;;;;;;12.80;12.80;;;;;20.46;44.47;99812.78;5076512;27;8968;-73
2023/09/07 00:38:04;;;;;;;;;14.60;14.40;;;;;20.37;44.45;99814.22;5127279;27;8950;-72
2023/09/07 00:40:35;;;;;;;;;14.40;14.40;;;;;20.37;44.95;99810.66;5110032;28;9638;-73
2023/09/07 00:43:05;;;;;;;;;16.40;15.00;;;;;20.34;44.84;99817.03;5126713;27;8959;-73
2023/09/07 00:45:34;;;;;;;;;14.40;14.40;;;;;20.24;45.20;99808.69;5124766;27;8860;-73
2023/09/07 00:48:04;;;;;;;;;17.20;16.60;;;;;20.26;45.40;99811.28;5092095;28;8892;-72
2023/09/07 00:50:33;;;;;;;;;14.40;14.00;;;;;20.26;45.09;99811.28;5108697;27;9048;-72
2023/09/07 00:53:03;;;;;;;;;16.60;16.60;;;;;20.24;45.34;99799.84;5126439;27;8991;-72
2023/09/07 00:55:34;;;;;;;;;15.60;15.60;;;;;20.23;45.71;99800.78;5101712;28;8853;-73
2023/09/07 00:58:04;;;;;;;;;17.20;16.60;;;;;20.20;45.63;99798.22;5100034;28;8851;-73
2023/09/07 01:00:35;;;;;;;;;18.00;16.20;;;;;20.23;45.45;99801.63;5107736;28;8836;-73
2023/09/07 01:03:04;;;;;;;;;17.60;17.60;;;;;20.25;45.58;99807.72;5104241;28;8963;-72
2023/09/07 01:05:40;;;;;;;;;17.40;17.00;;;;;20.29;45.40;99803.09;5114855;27;8851;-73
2023/09/07 01:08:16;;;;;;;;;22.00;19.40;;;;;20.31;45.29;99801.19;5109298;28;8849;-72
2023/09/07 01:10:46;;;;;;;;;18.20;16.40;;;;;20.31;45.20;99803.00;5108678;28;8882;-72
2023/09/07 01:13:15;;;;;;;;;12.20;12.20;;;;;20.30;45.62;99796.81;5097987;28;8883;-72
2023/09/07 01:15:44;;;;;;;;;16.80;16.80;;;;;20.26;45.40;99798.78;5106435;28;8833;-72
2023/09/07 01:18:14;;;;;;;;;18.60;17.40;;;;;20.22;45.20;99799.03;5099574;28;8860;-72
2023/09/07 01:20:55;;;;;;;;;16.80;15.80;;;;;20.23;45.11;99798.09;5108723;28;8884;-72
2023/09/07 01:23:26;;;;;;;;;16.40;15.40;;;;;20.21;44.96;99795.47;5056691;28;8879;-73
2023/09/07 01:25:56;;;;;;;;;15.40;15.40;;;;;20.20;45.05;99795.56;5109344;28;8907;-70
2023/09/07 01:28:25;;;;;;;;;15.60;13.80;;;;;20.15;45.31;99790.50;5128014;27;8853;-73
2023/09/07 01:30:54;;;;;;;;;18.40;17.60;;;;;20.15;45.37;99793.19;5111327;27;8845;-73
2023/09/07 01:33:22;;;;;;;;;18.00;16.80;;;;;20.11;45.04;99791.63;5111159;27;8869;-72
2023/09/07 01:35:53;;;;;;;;;16.20;16.20;;;;;20.07;45.10;99793.63;5093952;27;8834;-72
2023/09/07 01:38:22;;;;;;;;;16.60;16.00;;;;;19.97;45.13;99799.53;5109862;27;8841;-72
2023/09/07 01:40:52;;;;;;;;;17.00;16.60;;;;;20.04;44.94;99795.59;5103906;28;8924;-72
2023/09/07 01:43:21;;;;;;;;;18.00;18.00;;;;;20.02;45.01;99794.81;5107738;28;8839;-73
2023/09/07 01:45:50;;;;;;;;;15.00;15.00;;;;;20.00;45.10;99802.91;5090688;28;8847;-72
2023/09/07 01:48:19;;;;;;;;;18.80;16.20;;;;;19.98;44.89;99801.28;5107376;28;8828;-72
2023/09/07 01:50:52;;;;;;;;;15.80;15.80;;;;;19.99;44.36;99798.53;5107783;27;8885;-72
2023/09/07 01:53:21;;;;;;;;;19.80;17.40;;;;;19.99;44.22;99805.66;5090364;28;8856;-73
2023/09/07 01:55:55;;;;;;;;;16.20;15.40;;;;;20.02;44.50;99797.50;5100089;27;8931;-72
2023/09/07 01:58:24;;;;;;;;;15.80;15.20;;;;;19.99;44.31;99802.97;5107133;28;9750;-71
2023/09/07 02:00:58;;;;;;;;;14.60;14.60;;;;;20.02;44.41;99809.00;5088444;28;8871;-73
2023/09/07 02:03:27;;;;;;;;;16.40;15.20;;;;;20.04;44.50;99795.59;5089354;28;8890;-72
2023/09/07 02:05:56;;;;;;;;;18.60;15.40;;;;;20.01;44.54;99803.75;5089138;28;8840;-72
2023/09/07 02:08:25;;;;;;;;;14.00;14.00;;;;;20.03;44.12;99800.06;5087997;28;8887;-72
2023/09/07 02:10:56;;;;;;;;;15.80;15.60;;;;;20.04;44.43;99798.25;5105117;28;8839;-71
2023/09/07 02:13:27;;;;;;;;;15.60;15.60;;;;;20.01;44.07;99793.09;5101686;28;8853;-72
2023/09/07 02:15:56;;;;;;;;;0.00;0.00;;;;;20.01;43.79;99793.09;5089163;28;8838;-72
2023/09/07 02:18:24;;;;;;;;;15.80;14.80;;;;;19.97;44.00;99797.75;5040637;28;8867;-73
2023/09/07 02:20:53;;;;;;;;;16.60;16.20;;;;;20.00;43.70;99794.03;5087615;28;8859;-71
2023/09/07 02:23:22;;;;;;;;;13.40;13.40;;;;;20.00;43.67;99799.38;5104946;28;8844;-72
2023/09/07 02:25:51;;;;;;;;;3.40;3.40;;;;;20.06;43.43;99793.69;5087864;28;8839;-72
2023/09/07 02:28:21;;;;;;;;;16.20;16.20;;;;;20.05;43.48;99810.66;5070881;28;9094;-71
2023/09/07 02:30:50;;;;;;;;;16.60;16.60;;;;;20.04;43.35;99795.59;5101783;27;9717;-72
2023/09/07 02:33:19;;;;;;;;;18.00;15.80;;;;;20.04;43.45;99792.91;5107883;28;8869;-71
2023/09/07 02:35:49;;;;;;;;;14.80;14.80;;;;;20.00;43.53;99802.06;5124786;27;8821;-72
2023/09/07 02:38:18;;;;;;;;;15.00;14.00;;;;;20.05;43.42;99803.50;5109124;28;8849;-72
2023/09/07 02:40:48;;;;;;;;;16.40;15.40;;;;;19.98;43.72;99804.81;5107685;28;9600;-72
2023/09/07 02:43:17;;;;;;;;;17.60;17.20;;;;;19.96;43.74;99798.69;5107448;28;8855;-72
2023/09/07 02:45:49;;;;;;;;;14.80;14.60;;;;;19.94;43.97;99799.72;5083926;28;8843;-73
2023/09/07 02:48:18;;;;;;;;;18.00;17.20;;;;;19.94;43.87;99802.41;5087172;28;8840;-72
2023/09/07 02:50:50;;;;;;;;;16.60;16.00;;;;;19.92;43.65;99812.31;5087449;28;8847;-72
2023/09/07 02:53:22;;;;;;;;;18.40;16.40;;;;;19.89;43.90;99811.50;5087246;28;8869;-72
2023/09/07 02:55:51;;;;;;;;;15.60;15.00;;;;;19.86;43.83;99801.03;5096001;28;8994;-72
2023/09/07 02:58:19;;;;;;;;;15.60;14.40;;;;;19.84;44.04;99812.69;5086801;28;8866;-72
2023/09/07 03:00:49;;;;;;;;;20.00;20.00;;;;;19.87;43.97;99823.22;5087097;28;8835;-72
2023/09/07 03:03:21;;;;;;;;;16.60;15.60;;;;;19.86;43.90;99824.19;5086730;28;8897;-73
2023/09/07 03:05:50;;;;;;;;;15.20;15.20;;;;;19.81;44.12;99824.41;5107287;28;8963;-72
2023/09/07 03:08:19;;;;;;;;;16.60;13.00;;;;;19.85;44.18;99825.97;5107358;28;8956;-73
2023/09/07 03:10:48;;;;;;;;;16.60;16.60;;;;;19.67;44.28;99830.50;5124351;27;8849;-73
2023/09/07 03:13:16;;;;;;;;;17.20;17.20;;;;;19.62;44.58;99829.03;5125039;27;8999;-71
2023/09/07 03:15:46;;;;;;;;;19.60;19.40;;;;;19.57;44.65;99839.09;5126635;27;8902;-73
2023/09/07 03:18:16;;;;;;;;;17.60;16.60;;;;;19.51;44.76;99833.13;5092685;27;8845;-72
2023/09/07 03:20:45;;;;;;;;;16.80;14.60;;;;;19.39;45.10;99830.25;5128745;27;8863;-71
2023/09/07 03:23:14;;;;;;;;;17.40;17.00;;;;;19.37;45.23;99832.13;5088807;28;8871;-71
2023/09/07 03:25:43;;;;;;;;;17.80;17.80;;;;;19.31;45.28;99834.19;5088876;28;8898;-72
2023/09/07 03:28:12;;;;;;;;;11.60;10.60;;;;;19.30;45.37;99836.91;5089026;28;8864;-72
2023/09/07 03:30:41;;;;;;;;;13.20;13.00;;;;;19.20;45.67;99833.03;5044312;28;8882;-73
2023/09/07 03:33:10;;;;;;;;;20.00;18.80;;;;;19.26;45.34;99835.34;4995380;28;8940;-73
2023/09/07 03:35:41;;;;;;;;;16.40;16.40;;;;;19.12;45.81;99836.06;5029002;28;8886;-73
2023/09/07 03:38:09;;;;;;;;;18.80;15.40;;;;;19.16;45.91;99837.66;5036293;28;8841;-72
2023/09/07 03:40:39;;;;;;;;;16.20;15.20;;;;;19.01;45.96;99833.13;5048496;28;8837;-73
2023/09/07 03:43:08;;;;;;;;;18.60;18.60;;;;;18.99;46.09;99841.19;5048571;28;8981;-74
2023/09/07 03:45:37;;;;;;;;;15.60;15.60;;;;;18.88;46.05;99841.72;5048932;28;8829;-73
2023/09/07 03:48:08;;;;;;;;;17.60;17.60;;;;;18.89;45.87;99840.81;5043608;28;8864;-72
2023/09/07 03:50:40;;;;;;;;;16.40;15.60;;;;;18.90;46.01;99837.19;5028510;28;8889;-72
2023/09/07 03:53:08;;;;;;;;;15.00;15.00;;;;;18.71;46.48;99842.53;5028781;28;8954;-74
2023/09/07 03:55:41;;;;;;;;;15.80;15.80;;;;;18.68;46.74;99844.50;5045218;28;8832;-74
2023/09/07 03:58:12;;;;;;;;;18.40;16.80;;;;;18.69;46.76;99843.56;5059845;28;8867;-73
2023/09/07 04:00:43;;;;;;;;;20.80;19.00;;;;;18.70;46.28;99842.63;5052736;28;8849;-72
2023/09/07 04:03:12;;;;;;;;;20.00;20.00;;;;;18.61;46.48;99845.72;5109468;28;8903;-74
2023/09/07 04:05:43;;;;;;;;;16.40;15.40;;;;;18.49;46.51;99849.88;5112062;28;9610;-74
2023/09/07 04:08:13;;;;;;;;;16.40;14.20;;;;;18.40;46.35;99848.50;5111989;28;8849;-73
2023/09/07 04:10:41;;;;;;;;;16.80;16.80;;;;;18.48;46.14;99851.69;5111836;27;8886;-72
2023/09/07 04:13:10;;;;;;;;;17.20;16.00;;;;;18.39;46.19;99853.94;5056102;28;9021;-73
2023/09/07 04:15:43;;;;;;;;;16.60;15.00;;;;;18.39;46.22;99848.59;5090367;28;8835;-72
2023/09/07 04:18:15;;;;;;;;;17.40;16.40;;;;;18.37;46.28;99850.47;5073429;28;8889;-73
2023/09/07 04:20:46;;;;;;;;;14.00;14.00;;;;;18.27;46.61;99858.91;5114514;27;8875;-72
2023/09/07 04:23:16;;;;;;;;;14.60;14.60;;;;;18.26;46.70;99862.50;5090360;28;8978;-73
2023/09/07 04:25:45;;;;;;;;;14.20;14.20;;;;;18.25;46.56;99866.09;5090071;28;8839;-74
2023/09/07 04:28:15;;;;;;;;;18.00;16.20;;;;;18.22;46.74;99862.72;5106630;28;8852;-75
2023/09/07 04:30:44;;;;;;;;;18.20;15.80;;;;;18.24;46.58;99861.69;5091053;28;8990;-74
2023/09/07 04:33:12;;;;;;;;;14.40;14.40;;;;;18.26;46.25;99865.16;5090002;28;8840;-74
2023/09/07 04:35:41;;;;;;;;;16.60;16.20;;;;;18.24;46.57;99868.84;5055674;28;8893;-74
2023/09/07 04:38:12;;;;;;;;;16.60;16.60;;;;;18.24;46.58;99876.81;5096785;28;9504;-73
2023/09/07 04:40:40;;;;;;;;;18.40;17.00;;;;;18.21;46.56;99869.81;5090785;28;8922;-71
2023/09/07 04:43:09;;;;;;;;;12.40;12.40;;;;;18.26;46.44;99870.47;5089310;28;8872;-72
2023/09/07 04:45:46;;;;;;;;;16.80;16.80;;;;;18.22;46.66;99874.22;5071732;28;8833;-74
2023/09/07 04:48:15;;;;;;;;;18.60;18.60;;;;;18.22;46.30;99876.88;5105662;28;8861;-73
2023/09/07 04:50:44;;;;;;;;;14.60;14.60;;;;;18.20;46.19;99878.75;5092647;28;8996;-74
2023/09/07 04:53:14;;;;;;;;;16.60;16.20;;;;;18.32;45.64;99875.50;5095291;28;8867;-74
2023/09/07 04:55:45;;;;;;;;;19.40;17.40;;;;;18.39;45.31;99889.38;5088923;28;8855;-73
2023/09/07 04:58:14;;;;;;;;;16.20;13.80;;;;;18.42;45.19;99877.72;5110605;28;8844;-75
2023/09/07 05:00:43;;;;;;;;;14.80;14.80;;;;;18.44;45.15;99884.72;5105719;28;8895;-74
2023/09/07 05:03:12;;;;;;;;;14.00;13.80;;;;;18.42;45.11;99881.25;5088794;28;8851;-72
2023/09/07 05:05:43;;;;;;;;;16.20;16.20;;;;;18.47;44.85;99889.00;5073393;28;9159;-74
2023/09/07 05:08:14;;;;;;;;;14.80;14.80;;;;;18.46;44.77;99884.63;5038128;28;8859;-73
2023/09/07 05:10:43;;;;;;;;;17.00;15.20;;;;;18.56;44.54;99880.59;5107701;27;8867;-75
2023/09/07 05:13:12;;;;;;;;;15.20;14.00;;;;;18.42;44.78;99891.03;5070975;28;8859;-74
2023/09/07 05:15:48;;;;;;;;;17.20;14.80;;;;;18.67;44.15;99888.91;5105575;28;9596;-75
2023/09/07 05:18:19;;;;;;;;;13.80;13.00;;;;;18.74;43.73;99887.66;5088224;28;8986;-73
2023/09/07 05:20:51;;;;;;;;;18.40;15.20;;;;;18.68;43.91;99893.28;5110572;27;8891;-74
2023/09/07 05:23:22;;;;;;;;;12.60;12.60;;;;;18.71;43.81;99894.94;5122531;27;8852;-73
2023/09/07 05:25:53;;;;;;;;;13.80;13.20;;;;;18.68;43.93;99895.09;5088314;27;8952;-73
2023/09/07 05:28:24;;;;;;;;;15.40;15.20;;;;;18.77;43.82;99894.63;5104903;28;8870;-75
2023/09/07 05:30:55;;;;;;;;;13.20;12.20;;;;;18.81;43.51;99901.56;5109049;27;8866;-75
2023/09/07 05:33:25;;;;;;;;;16.00;14.60;;;;;18.80;43.52;99905.19;5071414;28;8860;-76
2023/09/07 05:35:54;;;;;;;;;10.20;10.00;;;;;18.94;43.30;99900.00;5121864;27;8902;-74
2023/09/07 05:38:24;;;;;;;;;15.60;15.40;;;;;18.90;43.26;99908.25;5088900;28;8847;-75
2023/09/07 05:40:55;;;;;;;;;11.80;11.20;;;;;18.98;42.81;99905.19;5096091;28;8847;-80
2023/09/07 05:43:25;;;;;;;;;2.80;1.40;;;;;18.97;42.90;99908.78;5105051;28;8844;-77
2023/09/07 05:45:54;;;;;;;;;13.80;13.20;;;;;19.06;42.76;99903.84;5104676;28;8917;-75
2023/09/07 05:48:23;;;;;;;;;13.20;13.20;;;;;19.14;42.48;99903.50;5088156;28;8856;-73
2023/09/07 05:50:52;;;;;;;;;12.20;11.40;;;;;19.21;42.21;99910.19;5089404;28;8863;-74
2023/09/07 05:53:21;;;;;;;;;11.80;11.20;;;;;19.29;41.99;99912.47;5099860;28;9708;-74
2023/09/07 05:55:52;;;;;;;;;12.20;11.20;;;;;19.33;42.25;99900.75;5104792;28;8856;-75
2023/09/07 05:58:20;;;;;;;;;14.80;12.80;;;;;19.39;41.93;99910.22;5077630;28;8881;-73
2023/09/07 06:00:49;;;;;;;;;12.00;12.00;;;;;19.37;42.17;99922.78;5107621;28;8841;-74
2023/09/07 06:03:19;;;;;;;;;13.80;13.40;;;;;19.40;42.16;99912.78;5088268;28;8955;-77
2023/09/07 06:05:48;;;;;;;;;13.60;12.80;;;;;19.47;41.57;99922.19;5105083;28;8967;-77
2023/09/07 06:08:19;;;;;;;;;12.20;12.20;;;;;19.37;41.74;99917.44;5103372;28;9052;-78
2023/09/07 06:10:48;;;;;;;;;15.40;14.00;;;;;19.42;42.10;99910.03;5107957;28;8821;-78
2023/09/07 06:13:18;;;;;;;;;13.00;12.60;;;;;19.63;41.19;99921.41;5093182;28;8871;-77
2023/09/07 06:15:47;;;;;;;;;11.60;11.60;;;;;19.62;40.99;99920.56;5079717;28;8845;-78
2023/09/07 06:18:16;;;;;;;;;12.00;12.00;;;;;19.76;40.85;99916.31;5105737;28;8864;-75
2023/09/07 06:20:45;;;;;;;;;12.60;12.40;;;;;19.79;40.71;99924.16;5103421;28;8875;-73
2023/09/07 06:23:14;;;;;;;;;12.40;12.40;;;;;19.80;41.08;99928.53;5100587;28;8849;-74
2023/09/07 06:25:43;;;;;;;;;12.00;12.00;;;;;19.89;40.77;99931.56;5103948;28;8848;-75
2023/09/07 06:28:12;;;;;;;;;14.80;14.00;;;;;19.98;40.39;99934.69;5097851;28;8978;-74
2023/09/07 06:30:43;;;;;;;;;9.00;9.00;;;;;20.04;39.85;99931.69;5103946;28;8878;-72
2023/09/07 06:33:12;;;;;;;;;14.00;12.80;;;;;20.15;39.94;99928.44;5103814;28;8908;-74
2023/09/07 06:35:41;;;;;;;;;11.40;11.40;;;;;20.15;40.01;99923.09;5103662;28;10058;-74
2023/09/07 06:38:10;;;;;;;;;12.80;12.00;;;;;20.32;39.58;99938.22;5064963;28;8895;-73
2023/09/07 06:40:48;;;;;;;;;12.40;12.40;;;;;20.38;39.42;99929.88;5054790;28;8963;-73
2023/09/07 06:43:18;;;;;;;;;14.40;12.40;;;;;20.20;39.47;99931.69;5069021;28;8863;-73
2023/09/07 06:45:50;;;;;;;;;12.80;12.80;;;;;20.19;39.24;99940.66;5103748;28;8863;-74
2023/09/07 06:48:19;;;;;;;;;14.00;14.00;;;;;20.11;39.57;99930.41;5069502;28;8958;-75
2023/09/07 06:50:48;;;;;;;;;14.80;13.40;;;;;20.46;39.37;99933.84;5103745;28;8882;-73
2023/09/07 06:53:17;;;;;;;;;12.00;11.20;;;;;20.37;39.08;99941.47;5087668;28;8864;-75
2023/09/07 06:55:46;;;;;;;;;14.00;12.20;;;;;20.45;39.15;99934.78;5088229;28;9708;-73
2023/09/07 06:58:15;;;;;;;;;13.80;12.40;;;;;20.61;38.99;99942.78;5094242;28;8912;-73
2023/09/07 07:00:45;;;;;;;;;12.20;11.60;;;;;20.67;38.63;99946.91;5108560;28;8922;-73
2023/09/07 07:03:15;;;;;;;;;16.00;13.00;;;;;20.75;38.78;99941.16;5126354;27;8861;-73
2023/09/07 07:05:44;;;;;;;;;13.00;13.00;;;;;20.66;38.91;99950.53;5109428;27;8838;-74
2023/09/07 07:08:13;;;;;;;;;12.60;12.20;;;;;20.99;38.28;99946.91;5058636;27;8857;-73
2023/09/07 07:10:43;;;;;;;;;13.80;13.80;;;;;21.04;38.08;99943.00;5126299;27;8841;-73
2023/09/07 07:13:12;;;;;;;;;14.60;14.60;;;;;21.12;38.10;99942.56;5108283;27;8991;-73
2023/09/07 07:15:42;;;;;;;;;11.40;11.40;;;;;21.09;37.65;99947.22;5088769;28;8847;-73
2023/09/07 07:18:11;;;;;;;;;12.60;12.40;;;;;21.24;37.19;99943.69;5105678;28;8843;-74
2023/09/07 07:20:43;;;;;;;;;14.60;13.00;;;;;20.97;36.70;99949.66;5088719;28;8860;-72
2023/09/07 07:23:13;;;;;;;;;12.00;12.00;;;;;21.04;36.77;99951.03;5105501;28;8910;-73
2023/09/07 07:25:42;;;;;;;;;11.00;11.00;;;;;21.10;36.91;99949.81;5105848;28;8840;-73
2023/09/07 07:28:11;;;;;;;;;12.40;11.40;;;;;21.02;36.76;99954.75;5105802;28;8851;-73
2023/09/07 07:30:41;;;;;;;;;12.00;12.00;;;;;21.03;37.46;99946.66;5105829;28;8870;-75
2023/09/07 07:33:11;;;;;;;;;12.40;11.40;;;;;21.19;37.70;99951.94;5107206;28;8847;-73
2023/09/07 07:35:42;;;;;;;;;13.20;12.20;;;;;21.45;37.42;99954.91;5073959;28;9096;-73
2023/09/07 07:38:13;;;;;;;;;8.40;8.40;;;;;21.61;37.59;99958.38;5094284;28;9811;-72
2023/09/07 07:40:42;;;;;;;;;12.20;12.20;;;;;21.59;37.44;99952.25;5128256;27;8833;-73
2023/09/07 07:43:13;;;;;;;;;14.60;13.20;;;;;21.70;37.22;99954.28;5111220;28;9638;-73
2023/09/07 07:45:42;;;;;;;;;13.00;13.00;;;;;21.85;37.23;99952.50;5110699;28;8871;-74
2023/09/07 07:48:11;;;;;;;;;13.00;12.80;;;;;21.78;37.07;99953.81;5110590;28;8884;-73
2023/09/07 07:50:44;;;;;;;;;14.00;14.00;;;;;21.93;36.51;99957.38;5111071;28;8853;-72
2023/09/07 07:53:15;;;;;;;;;12.80;12.80;;;;;21.87;36.06;99955.09;5127782;27;8872;-73
2023/09/07 07:55:48;;;;;;;;;15.00;13.00;;;;;22.02;36.08;99956.81;5110598;28;8871;-75
2023/09/07 07:58:20;;;;;;;;;12.00;12.00;;;;;22.11;35.35;99956.25;5127692;27;8864;-72
2023/09/07 08:00:49;;;;;;;;;13.20;10.60;;;;;22.29;34.78;99964.94;5110272;28;8845;-74
2023/09/07 08:03:23;;;;;;;;;14.00;13.60;;;;;22.27;34.32;99960.66;5097745;27;8833;-73
2023/09/07 08:05:54;;;;;;;;;9.40;9.00;;;;;22.27;34.46;99969.53;5130043;27;8841;-73
2023/09/07 08:08:22;;;;;;;;;12.60;11.00;;;;;22.34;33.76;99959.31;5130282;27;8879;-74
2023/09/07 08:10:51;;;;;;;;;11.00;9.80;;;;;22.26;34.28;99957.13;5129745;27;8957;-73
2023/09/07 08:13:20;;;;;;;;;10.00;9.80;;;;;22.20;34.38;99966.38;5095452;27;8861;-73
2023/09/07 08:15:49;;;;;;;;;11.80;11.00;;;;;22.52;34.22;99967.97;5129212;27;8837;-73
2023/09/07 08:18:18;;;;;;;;;10.60;10.60;;;;;22.72;33.93;99964.00;5129531;27;8858;-73
2023/09/07 08:20:47;;;;;;;;;10.40;10.40;;;;;22.55;34.07;99963.28;5129066;27;8876;-75
2023/09/07 08:23:17;;;;;;;;;12.40;11.40;;;;;22.60;34.26;99977.25;5129426;27;8980;-73
2023/09/07 08:25:46;;;;;;;;;12.00;11.40;;;;;22.61;33.55;99972.75;5129750;27;8841;-75
2023/09/07 08:28:18;;;;;;;;;10.60;9.80;;;;;22.64;33.50;99969.88;5129319;27;8846;-74
2023/09/07 08:30:47;;;;;;;;;14.00;13.00;;;;;22.89;33.50;99968.31;5129549;27;8860;-74
2023/09/07 08:33:16;;;;;;;;;12.60;11.80;;;;;22.76;33.58;99974.41;5129341;27;8869;-72
2023/09/07 08:35:45;;;;;;;;;12.00;12.00;;;;;22.80;33.48;99967.03;5129139;27;8864;-74
2023/09/07 08:38:14;;;;;;;;;11.40;11.40;;;;;22.85;33.17;99959.56;5094491;27;8841;-72
2023/09/07 08:40:46;;;;;;;;;10.60;10.60;;;;;22.97;33.01;99956.09;5122829;27;9714;-72
2023/09/07 08:43:16;;;;;;;;;14.20;11.80;;;;;22.98;33.03;99960.50;5074191;28;8861;-74
2023/09/07 08:45:52;;;;;;;;;15.20;15.20;;;;;23.18;33.27;99961.84;5110880;28;9587;-73
2023/09/07 08:48:21;;;;;;;;;9.80;8.80;;;;;23.30;32.87;99954.81;5091698;28;8872;-74
2023/09/07 08:50:52;;;;;;;;;11.40;11.20;;;;;23.34;32.78;99956.31;5111206;28;8853;-74
2023/09/07 08:53:21;;;;;;;;;12.00;11.20;;;;;23.22;32.76;99956.28;5091011;28;8852;-73
2023/09/07 08:55:51;;;;;;;;;11.00;11.00;;;;;23.42;32.95;99957.63;5090733;28;8847;-75
2023/09/07 08:58:20;;;;;;;;;16.40;14.20;;;;;23.13;33.23;99950.59;5090347;28;8978;-74
2023/09/07 09:00:49;;;;;;;;;12.80;11.80;;;;;23.23;33.18;99956.19;5090534;28;8839;-72
2023/09/07 09:03:18;;;;;;;;;11.80;10.80;;;;;23.53;32.85;99950.56;5089038;28;8866;-75
2023/09/07 09:05:50;;;;;;;;;13.80;13.80;;;;;23.54;32.71;99956.78;5090550;28;8856;-74
2023/09/07 09:08:20;;;;;;;;;12.40;11.80;;;;;23.68;32.72;99950.50;5090012;28;8983;-73
2023/09/07 09:10:49;;;;;;;;;10.20;10.20;;;;;23.55;32.69;99947.78;5090400;28;8840;-74
2023/09/07 09:13:28;;;;;;;;;12.20;12.20;;;;;23.72;32.46;99949.31;5089842;28;8852;-73
2023/09/07 09:16:00;;;;;;;;;11.20;11.20;;;;;23.65;32.72;99942.66;5089837;28;8832;-73
2023/09/07 09:18:30;;;;;;;;;11.20;11.20;;;;;23.59;32.53;99946.63;5090250;28;8877;-73
2023/09/07 09:21:00;;;;;;;;;11.00;11.00;;;;;23.39;32.83;99942.56;5089723;28;8840;-74
2023/09/07 09:23:32;;;;;;;;;12.60;12.20;;;;;23.38;32.83;99940.88;5070597;28;8877;-74
2023/09/07 09:26:03;;;;;;;;;10.40;10.40;;;;;23.26;33.23;99947.94;5089099;28;8848;-74
2023/09/07 09:28:33;;;;;;;;;11.80;11.80;;;;;23.50;32.75;99945.38;5089739;28;8883;-73
2023/09/07 09:31:04;;;;;;;;;12.00;11.60;;;;;23.48;32.89;99941.94;5089035;28;8839;-74
2023/09/07 09:33:33;;;;;;;;;11.00;11.00;;;;;23.53;32.65;99937.16;5089947;28;8863;-74
2023/09/07 09:36:02;;;;;;;;;8.20;7.80;;;;;23.55;33.05;99940.59;5089701;28;8851;-74
2023/09/07 09:38:33;;;;;;;;;14.80;14.60;;;;;23.40;33.25;99936.25;5070328;28;8859;-73
2023/09/07 09:41:03;;;;;;;;;13.40;13.40;;;;;23.48;32.92;99927.69;5089693;28;8950;-74
2023/09/07 09:43:34;;;;;;;;;11.60;11.60;;;;;23.58;32.63;99937.72;5089656;28;8957;-74
2023/09/07 09:46:04;;;;;;;;;11.40;10.80;;;;;23.72;33.05;99938.56;5089443;28;8847;-73
2023/09/07 09:48:37;;;;;;;;;12.40;12.40;;;;;23.79;32.78;99931.81;5070327;28;8889;-74
2023/09/07 09:51:08;;;;;;;;;10.60;10.00;;;;;23.88;32.33;99938.34;5058599;28;8833;-74
2023/09/07 09:53:37;;;;;;;;;13.80;12.60;;;;;23.92;32.27;99934.47;5109638;27;8845;-74
2023/09/07 09:56:06;;;;;;;;;13.00;10.80;;;;;23.92;32.89;99929.97;5108440;28;8865;-73
2023/09/07 09:58:38;;;;;;;;;12.60;12.60;;;;;23.97;32.16;99935.00;5109510;28;8856;-74
2023/09/07 10:01:09;;;;;;;;;13.00;13.00;;;;;24.07;32.05;99932.53;5073550;28;8837;-74
2023/09/07 10:03:45;;;;;;;;;11.60;11.60;;;;;24.11;32.65;99936.69;5109623;28;8863;-74
2023/09/07 10:06:20;;;;;;;;;11.00;11.00;;;;;24.29;32.52;99929.19;5099871;28;8901;-75
2023/09/07 10:08:55;;;;;;;;;12.20;12.20;;;;;24.44;32.03;99928.06;5089433;28;8990;-74
2023/09/07 10:11:30;;;;;;;;;14.80;13.60;;;;;24.53;31.61;99916.66;5089518;28;8856;-76
2023/09/07 10:14:03;;;;;;;;;12.00;11.80;;;;;24.62;31.80;99920.50;5089059;28;8855;-74
2023/09/07 10:16:43;;;;;;;;;12.00;11.00;;;;;24.68;31.71;99920.03;5088707;28;8852;-74
2023/09/07 10:19:16;;;;;;;;;13.20;11.80;;;;;24.70;31.51;99915.41;5089146;28;8848;-74
2023/09/07 10:21:45;;;;;;;;;13.00;13.00;;;;;24.55;31.60;99911.16;5088625;28;9714;-74
2023/09/07 10:24:25;;;;;;;;;11.80;11.80;;;;;24.53;31.77;99913.97;5088845;28;8953;-74
2023/09/07 10:26:59;;;;;;;;;9.60;9.60;;;;;24.81;31.33;99905.69;5088817;28;8929;-76
2023/09/07 10:29:30;;;;;;;;;11.20;11.20;;;;;24.85;31.03;99904.47;5088969;28;8856;-74
2023/09/07 10:32:06;;;;;;;;;13.60;13.60;;;;;25.15;30.91;99903.13;5088636;28;8870;-74
2023/09/07 10:34:39;;;;;;;;;14.20;14.00;;;;;25.01;31.10;99902.34;5088491;28;8871;-72
2023/09/07 10:37:10;;;;;;;;;10.80;10.20;;;;;25.06;31.39;99904.72;5088649;28;9620;-74
2023/09/07 10:39:42;;;;;;;;;11.40;11.40;;;;;25.17;31.69;99909.25;5088557;28;8871;-75
2023/09/07 10:42:21;;;;;;;;;12.20;11.80;;;;;25.19;31.12;99901.91;5067099;28;9645;-74
2023/09/07 10:44:51;;;;;;;;;10.20;10.20;;;;;25.12;30.60;99898.84;5088189;28;8865;-74
2023/09/07 10:47:21;;;;;;;;;13.00;11.60;;;;;25.13;30.85;99897.88;5088142;28;9564;-74
2023/09/07 10:49:50;;;;;;;;;11.00;11.00;;;;;25.27;31.27;99892.28;5088474;28;8859;-75
2023/09/07 10:52:18;;;;;;;;;13.80;13.80;;;;;25.21;31.25;99898.16;5088225;28;8839;-75
2023/09/07 10:54:56;;;;;;;;;14.60;14.20;;;;;25.29;31.14;99895.72;5088489;28;8961;-74
2023/09/07 10:57:26;;;;;;;;;13.60;13.60;;;;;25.36;30.88;99885.38;5087937;28;9476;-74
2023/09/07 10:59:57;;;;;;;;;13.20;12.20;;;;;25.30;31.12;99900.13;5102879;28;8828;-74
2023/09/07 11:02:26;;;;;;;;;12.60;11.60;;;;;25.60;30.63;99900.56;5088050;28;8882;-73
2023/09/07 11:04:54;;;;;;;;;12.40;11.80;;;;;25.87;30.02;99898.41;5088032;28;8848;-75
2023/09/07 11:07:23;;;;;;;;;11.20;11.20;;;;;26.03;29.77;99895.34;5087630;28;9649;-75
2023/09/07 11:09:54;;;;;;;;;11.80;11.20;;;;;26.13;29.50;99898.16;5088000;28;8989;-75
2023/09/07 11:12:22;;;;;;;;;11.40;10.40;;;;;26.28;29.06;99878.03;5087925;28;8848;-74
2023/09/07 11:14:51;;;;;;;;;14.60;14.20;;;;;26.29;29.01;99876.22;5070509;28;8980;-76
2023/09/07 11:17:27;;;;;;;;;12.80;12.60;;;;;26.53;29.09;99881.47;5108072;28;9653;-74
2023/09/07 11:19:56;;;;;;;;;14.60;13.60;;;;;26.68;28.92;99868.53;5108069;28;8961;-75
2023/09/07 11:22:25;;;;;;;;;14.40;14.40;;;;;26.58;29.07;99886.47;5072432;28;9676;-76
2023/09/07 11:24:54;;;;;;;;;11.60;11.40;;;;;26.56;28.21;99875.81;5107890;28;8884;-74
2023/09/07 11:27:23;;;;;;;;;8.60;8.60;;;;;26.42;27.88;99887.72;5089205;28;8934;-74
2023/09/07 11:29:53;;;;;;;;;12.40;12.40;;;;;26.56;27.99;99881.19;5107724;28;9027;-74
2023/09/07 11:32:24;;;;;;;;;12.00;11.40;;;;;26.50;28.24;99876.31;5108061;28;8925;-74
2023/09/07 11:34:54;;;;;;;;;10.60;10.60;;;;;26.77;27.79;99872.31;5093259;28;8851;-74
2023/09/07 11:37:27;;;;;;;;;10.80;10.40;;;;;26.57;27.99;99876.66;5087544;28;8875;-75
2023/09/07 11:39:56;;;;;;;;;12.80;11.40;;;;;26.66;27.63;99871.38;5087455;28;8871;-75